EBCIEBFN

Guest
Details From EBCI - Brussels South - Charleroi
To EBFN - KOKSIJDE
Flight Number -
Tags generated
Created
Modified
Stats Distance 78 nm / 145 km
Max Altitude 6,300 ft / 1,920 m
Waypoints 3
Social Downloads 1
Likes 0
Share VATSIM

Download

Looking for another format? Having issues loading an existing format? Contact us
Advertisement - Login to hide

Notes

Basic altitude profile: - Ascent Rate: 2500ft/min - Ascent Speed: 250kts - Cruise Altitude: 35000ft - Cruise Speed: 420kts - Descent Rate: 1500ft/min - Descent Speed: 250kts Options: - Use NATs: yes - Use PACOTS: yes - Use low airways: yes - Use high airways: yes

Route

EBCI SISGA EBFN

ID Type Via Altitude Latitude Longitude Leg Dist Tot Dist Heading (true) Name
O EBCI APT - 0 ft / 0 m 50.45995˚ 4.45312˚ - 0 nm - Brussels South - Charleroi
SISGA FIX - 6,300 ft / 1,920 m 50.61797˚ 4.05658˚ 17 nm 17 nm 302° / 302° -
O EBFN APT - 0 ft / 0 m 51.09022˚ 2.65293˚ 60 nm 78 nm 299° / 298° KOKSIJDE

Altitude Profile

Advertisement - Login to hide

EBCI

Details ICAO EBCI (CRL)
Name Brussels South - Charleroi
Region Belgium
Timezone Europe/Brussels (UTC+1.0)
Stats Elevation 614 ft / 187 m (AMSL)
Location 50.459947° 4.453125°
Runways 1
Magnetic Variation 1.134° E

METAR

EBCI 160920Z 33005KT 300V360 7000 -SHRA SCT005 BKN008 03/02 Q1013 TEMPO 2000 SHRASN BR BKN005

Decode

TAF

TAF EBCI 160514Z 1606/1712 28006KT 7000 SCT004 BKN008 TEMPO 1606/1609 0600 FG BKN001 PROB40 TEMPO 1606/1621 3000 SHRASN BKN004 SCT014CB PROB30 TEMPO 1621/1703 0700 SHSNRA SHSN BKN002 SCT014TCU

Decode

Departure Runways

ID Width Length Bearing (true) Bearing (mag) Surface Threshold Offset Overrun Length
07 148 ft / 45 m 8,374 ft / 2,552 m 65.53° 64.40° Asphalt 1,476 ft / 450 m 0 ft / 0 m
25 148 ft / 45 m 8,374 ft / 2,552 m 245.55° 244.42° Asphalt 0 ft / 0 m 0 ft / 0 m

EBFN

Details ICAO EBFN
Name KOKSIJDE
Region Belgium
Timezone Europe/Brussels (UTC+1.0)
Stats Elevation 20 ft / 6 m (AMSL)
Location 51.090220° 2.652930°
Runways 1
Magnetic Variation 0.525° E

METAR

EBFN 160925Z AUTO 32013KT 9999 BKN017/// 05/03 Q1015 WHT

Decode

TAF

Not found

Destination Runways

ID Width Length Bearing (true) Bearing (mag) Surface Threshold Offset Overrun Length
11 115 ft / 35 m 8,754 ft / 2,668 m 108.24° 107.71° Asphalt 312 ft / 95 m 3 ft / 1 m
29 115 ft / 35 m 8,754 ft / 2,668 m 288.26° 287.73° Asphalt 325 ft / 99 m 0 ft / 0 m